createdAt,value
2022-10-08T00:01:32.250Z,72.06
2022-10-08T00:04:00.822Z,72.00
2022-10-08T00:06:33.365Z,71.89
2022-10-08T00:09:03.277Z,72.36
2022-10-08T00:11:33.244Z,72.42
2022-10-08T00:14:02.149Z,72.13
2022-10-08T00:16:33.776Z,72.44
2022-10-08T00:19:03.949Z,73.11
2022-10-08T00:21:35.522Z,72.70
2022-10-08T00:24:05.119Z,72.64
2022-10-08T00:26:37.599Z,72.41
2022-10-08T00:29:09.757Z,72.00
2022-10-08T00:31:40.511Z,71.99
2022-10-08T00:34:09.983Z,71.91
2022-10-08T00:36:40.524Z,71.83
2022-10-08T00:39:15.077Z,73.15
2022-10-08T00:41:45.240Z,72.41
2022-10-08T00:44:59.524Z,72.76
2022-10-08T00:47:42.199Z,72.59
2022-10-08T00:50:14.716Z,72.86
2022-10-08T00:52:47.510Z,72.84
2022-10-08T00:55:18.724Z,73.08
2022-10-08T00:57:46.891Z,72.52
2022-10-08T01:00:18.025Z,72.56
2022-10-08T01:02:46.505Z,72.38
2022-10-08T01:05:17.599Z,72.32
2022-10-08T01:07:51.932Z,72.92
2022-10-08T01:10:28.636Z,73.02
2022-10-08T01:13:11.233Z,73.06
2022-10-08T01:15:45.733Z,72.83
2022-10-08T01:18:23.375Z,72.89
2022-10-08T01:21:04.858Z,72.62
2022-10-08T01:23:55.277Z,72.00
2022-10-08T01:26:54.023Z,71.94
2022-10-08T01:29:28.793Z,72.81
2022-10-08T01:32:03.292Z,73.08
2022-10-08T01:34:38.248Z,73.81
2022-10-08T01:37:10.668Z,74.22
2022-10-08T01:39:41.598Z,73.83
2022-10-08T01:42:12.086Z,73.86
2022-10-08T01:44:46.368Z,73.64
2022-10-08T01:47:19.756Z,74.15
2022-10-08T01:49:54.711Z,73.98
2022-10-08T01:52:26.836Z,74.15
2022-10-08T01:54:58.813Z,73.62
2022-10-08T01:57:29.183Z,74.37
2022-10-08T02:00:03.905Z,74.30
2022-10-08T02:02:40.802Z,74.20
2022-10-08T02:05:09.339Z,73.35
2022-10-08T02:07:38.912Z,73.26
2022-10-08T02:10:10.013Z,73.40
2022-10-08T02:12:40.146Z,73.87
2022-10-08T02:15:12.977Z,73.40
2022-10-08T02:17:50.558Z,73.16
2022-10-08T02:20:23.767Z,72.46
2022-10-08T02:23:00.420Z,73.12
2022-10-08T02:25:34.636Z,73.30
2022-10-08T02:28:10.456Z,74.12
2022-10-08T02:30:47.852Z,74.20
2022-10-08T02:33:22.811Z,73.69
2022-10-08T02:35:54.982Z,73.74
2022-10-08T02:38:28.459Z,73.45
2022-10-08T02:41:02.116Z,74.02
2022-10-08T02:43:34.426Z,73.78
2022-10-08T02:46:09.770Z,73.57
2022-10-08T02:48:42.385Z,74.92
2022-10-08T02:51:18.695Z,74.31
2022-10-08T02:53:48.255Z,74.03
2022-10-08T02:56:21.600Z,73.95
2022-10-08T02:58:49.473Z,74.03
2022-10-08T03:01:26.591Z,74.49
2022-10-08T03:03:59.876Z,73.77
2022-10-08T03:06:30.062Z,73.57
2022-10-08T03:09:00.599Z,73.29
2022-10-08T03:11:31.289Z,73.20
2022-10-08T03:14:03.485Z,72.70
2022-10-08T03:16:39.113Z,73.07
2022-10-08T03:19:08.996Z,73.31
2022-10-08T03:21:39.418Z,73.10
2022-10-08T03:24:07.786Z,73.27
2022-10-08T03:26:36.401Z,73.41
2022-10-08T03:29:05.118Z,73.34
2022-10-08T03:31:34.826Z,73.01
2022-10-08T03:34:03.220Z,73.32
2022-10-08T03:36:31.217Z,73.32
2022-10-08T03:38:59.148Z,73.71
2022-10-08T03:41:27.034Z,73.10
2022-10-08T03:43:54.876Z,73.13
2022-10-08T03:46:22.836Z,73.14
2022-10-08T03:48:52.405Z,73.24
2022-10-08T03:51:20.950Z,73.06
2022-10-08T03:53:48.830Z,73.48
2022-10-08T03:56:19.574Z,73.35
2022-10-08T03:58:48.997Z,73.95
2022-10-08T04:01:18.954Z,73.84
2022-10-08T04:03:46.903Z,73.55
2022-10-08T04:06:16.290Z,73.09
2022-10-08T04:08:44.704Z,72.97
2022-10-08T04:11:18.219Z,72.84
2022-10-08T04:13:46.132Z,72.70
2022-10-08T04:16:15.982Z,72.43
2022-10-08T04:18:44.767Z,72.44
2022-10-08T04:21:14.733Z,72.38
2022-10-08T04:23:45.262Z,73.51
2022-10-08T04:26:14.978Z,72.73
2022-10-08T04:28:45.171Z,73.05
2022-10-08T04:31:16.685Z,72.68
2022-10-08T04:33:45.682Z,72.27
2022-10-08T04:36:15.446Z,72.21
2022-10-08T04:38:45.257Z,72.00
2022-10-08T04:41:14.998Z,71.74
2022-10-08T04:43:44.117Z,71.89
2022-10-08T04:46:13.519Z,72.12
2022-10-08T04:48:46.646Z,72.25
2022-10-08T04:51:14.740Z,72.51
2022-10-08T04:53:44.369Z,72.22
2022-10-08T04:56:15.370Z,71.88
2022-10-08T04:58:43.279Z,71.74
2022-10-08T05:01:13.570Z,72.12
2022-10-08T05:03:43.692Z,72.05
2022-10-08T05:06:12.090Z,71.72
2022-10-08T05:08:40.158Z,71.49
2022-10-08T05:11:09.948Z,71.57
2022-10-08T05:13:38.024Z,71.16
2022-10-08T05:16:06.769Z,71.69
2022-10-08T05:18:35.560Z,71.40
2022-10-08T05:21:04.894Z,71.50
2022-10-08T05:23:32.979Z,71.80
2022-10-08T05:26:02.396Z,71.52
2022-10-08T05:28:31.759Z,71.60
2022-10-08T05:31:03.259Z,71.95
2022-10-08T05:33:31.276Z,71.84
2022-10-08T05:36:03.587Z,71.74
2022-10-08T05:38:34.995Z,71.87
2022-10-08T05:41:11.793Z,71.72
2022-10-08T05:43:41.630Z,71.82
2022-10-08T05:46:09.842Z,71.70
2022-10-08T05:48:38.498Z,72.03
2022-10-08T05:51:07.555Z,71.72
2022-10-08T05:53:37.292Z,71.76
2022-10-08T05:56:06.980Z,71.63
2022-10-08T05:58:36.837Z,71.75
2022-10-08T06:01:07.888Z,71.41
2022-10-08T06:03:36.235Z,70.94
2022-10-08T06:06:05.857Z,71.11
2022-10-08T06:08:34.304Z,71.09
2022-10-08T06:11:02.916Z,70.97
2022-10-08T06:13:31.020Z,70.90
2022-10-08T06:16:00.693Z,70.70
2022-10-08T06:18:32.953Z,70.92
2022-10-08T06:21:03.866Z,71.33
2022-10-08T06:23:32.148Z,70.76
2022-10-08T06:26:03.082Z,70.38
2022-10-08T06:28:31.063Z,70.25
2022-10-08T06:31:00.045Z,70.44
2022-10-08T06:33:28.551Z,70.61
2022-10-08T06:35:57.938Z,70.73
2022-10-08T06:38:25.929Z,70.40
2022-10-08T06:40:53.952Z,70.54
2022-10-08T06:43:22.517Z,70.55
2022-10-08T06:45:50.595Z,70.55
2022-10-08T06:48:19.798Z,70.72
2022-10-08T06:50:47.898Z,70.59
2022-10-08T06:53:24.826Z,70.39
2022-10-08T06:55:57.754Z,70.32
2022-10-08T06:58:25.935Z,70.68
2022-10-08T07:01:02.601Z,70.34
2022-10-08T07:03:31.105Z,70.14
2022-10-08T07:06:01.618Z,69.66
2022-10-08T07:08:32.033Z,68.24
2022-10-08T07:11:05.019Z,67.83
2022-10-08T07:13:33.309Z,67.01
2022-10-08T07:16:05.864Z,67.23
2022-10-08T07:18:35.568Z,66.60
2022-10-08T07:21:03.813Z,66.91
2022-10-08T07:23:33.667Z,67.62
2022-10-08T07:26:03.764Z,67.02
2022-10-08T07:28:34.197Z,67.00
2022-10-08T07:31:05.775Z,67.37
2022-10-08T07:33:34.304Z,66.60
2022-10-08T07:36:10.552Z,66.86
2022-10-08T07:38:40.832Z,67.36
2022-10-08T07:41:10.462Z,66.73
2022-10-08T07:43:41.298Z,66.95
2022-10-08T07:46:10.648Z,66.72
2022-10-08T07:48:38.752Z,66.13
2022-10-08T07:51:11.166Z,66.48
2022-10-08T07:53:41.335Z,66.51
2022-10-08T07:56:11.008Z,66.59
2022-10-08T07:58:39.245Z,66.62
2022-10-08T08:01:09.737Z,65.63
2022-10-08T08:03:38.057Z,65.58
2022-10-08T08:06:09.203Z,65.49
2022-10-08T08:08:39.279Z,65.06
2022-10-08T08:11:11.166Z,65.30
2022-10-08T08:13:40.951Z,65.39
2022-10-08T08:16:11.804Z,65.47
2022-10-08T08:18:42.349Z,65.34
2022-10-08T08:21:13.530Z,65.21
2022-10-08T08:23:43.998Z,65.83
2022-10-08T08:26:14.722Z,65.34
2022-10-08T08:28:42.763Z,65.27
2022-10-08T08:31:13.013Z,65.82
2022-10-08T08:33:41.580Z,65.38
2022-10-08T08:36:10.124Z,65.26
2022-10-08T08:38:39.061Z,64.81
2022-10-08T08:41:18.530Z,65.02
2022-10-08T08:44:00.491Z,64.80
2022-10-08T08:46:36.647Z,65.07
2022-10-08T08:49:14.873Z,65.08
2022-10-08T08:51:44.811Z,64.78
2022-10-08T08:54:16.273Z,64.60
2022-10-08T08:56:47.575Z,64.82
2022-10-08T08:59:27.337Z,65.29
2022-10-08T09:02:00.962Z,65.14
2022-10-08T09:04:44.318Z,65.02
2022-10-08T09:07:20.425Z,64.98
2022-10-08T09:09:52.821Z,65.09
2022-10-08T09:12:23.103Z,64.71
2022-10-08T09:14:58.060Z,65.00
2022-10-08T09:17:32.844Z,64.89
2022-10-08T09:20:05.998Z,63.94
2022-10-08T09:22:38.837Z,63.43
2022-10-08T09:25:13.944Z,63.08
2022-10-08T09:27:46.564Z,62.11
2022-10-08T09:30:37.304Z,61.61
2022-10-08T09:33:26.178Z,60.83
2022-10-08T09:35:59.500Z,59.76
2022-10-08T09:38:29.825Z,59.17
2022-10-08T09:41:03.379Z,58.93
2022-10-08T09:43:33.430Z,59.26
2022-10-08T09:46:11.857Z,59.32
2022-10-08T09:48:41.690Z,58.77
2022-10-08T09:51:16.751Z,58.04
2022-10-08T09:53:47.460Z,57.94
2022-10-08T09:56:16.651Z,57.65
2022-10-08T09:58:53.761Z,57.55
2022-10-08T10:01:25.172Z,57.36
2022-10-08T10:03:56.229Z,57.67
2022-10-08T10:06:29.675Z,57.54
2022-10-08T10:09:05.003Z,57.06
2022-10-08T10:11:39.081Z,56.91
2022-10-08T10:14:15.586Z,56.78
2022-10-08T10:16:47.666Z,56.74
2022-10-08T10:19:19.944Z,56.11
2022-10-08T10:21:55.885Z,56.08
2022-10-08T10:24:45.736Z,56.69
2022-10-08T10:27:19.517Z,56.18
2022-10-08T10:29:56.210Z,56.10
2022-10-08T10:32:32.438Z,56.05
2022-10-08T10:35:08.508Z,55.63
2022-10-08T10:37:44.877Z,54.88
2022-10-08T10:40:37.823Z,55.33
2022-10-08T10:43:19.098Z,55.29
2022-10-08T10:45:52.097Z,54.98
2022-10-08T10:48:21.523Z,54.82
2022-10-08T10:51:05.175Z,55.74
2022-10-08T10:53:40.506Z,54.35
2022-10-08T10:56:15.997Z,54.34
2022-10-08T10:59:00.757Z,52.93
2022-10-08T11:01:36.223Z,52.94
2022-10-08T11:04:13.674Z,53.64
2022-10-08T11:06:59.733Z,53.88
2022-10-08T11:09:42.042Z,54.68
2022-10-08T11:12:27.106Z,55.60
2022-10-08T11:15:04.724Z,55.88
2022-10-08T11:18:03.704Z,55.74
2022-10-08T11:20:57.055Z,56.23
2022-10-08T11:23:41.627Z,54.55
2022-10-08T11:26:22.760Z,53.91
2022-10-08T11:29:02.579Z,56.53
2022-10-08T11:31:38.256Z,59.60
2022-10-08T11:34:19.592Z,61.49
2022-10-08T11:36:57.023Z,62.28
2022-10-08T11:39:33.568Z,61.05
2022-10-08T11:42:11.743Z,58.09
2022-10-08T11:44:40.200Z,58.79
2022-10-08T11:47:49.229Z,59.11
2022-10-08T11:50:36.053Z,58.98
2022-10-08T11:53:21.192Z,58.77
2022-10-08T11:55:52.878Z,58.71
2022-10-08T11:58:24.746Z,59.02
2022-10-08T12:01:01.557Z,60.01
2022-10-08T12:03:33.968Z,60.07
2022-10-08T12:06:16.491Z,60.37
2022-10-08T12:08:57.220Z,60.86
2022-10-08T12:11:48.361Z,61.06
2022-10-08T12:14:35.114Z,59.53
2022-10-08T12:17:10.999Z,58.77
2022-10-08T12:20:07.676Z,57.84
2022-10-08T12:22:44.578Z,57.16
2022-10-08T12:25:44.269Z,57.06
2022-10-08T12:28:50.179Z,56.46
2022-10-08T12:31:30.721Z,56.83
2022-10-08T12:34:01.705Z,56.57
2022-10-08T12:36:44.605Z,57.00
2022-10-08T12:39:29.917Z,58.26
2022-10-08T12:42:08.482Z,58.14
2022-10-08T12:44:48.990Z,57.42
2022-10-08T12:47:28.281Z,55.85
2022-10-08T12:50:04.164Z,55.01
2022-10-08T12:52:36.033Z,54.53
2022-10-08T12:55:06.232Z,53.22
2022-10-08T12:57:41.751Z,53.71
2022-10-08T13:00:22.949Z,54.58
2022-10-08T13:03:00.874Z,56.58
2022-10-08T13:05:31.492Z,58.30
2022-10-08T13:07:59.992Z,58.95
2022-10-08T13:10:30.445Z,58.68
2022-10-08T13:13:04.723Z,57.00
2022-10-08T13:15:34.234Z,56.49
2022-10-08T13:18:14.299Z,55.71
2022-10-08T13:20:56.539Z,55.72
2022-10-08T13:23:34.394Z,53.78
2022-10-08T13:26:02.581Z,54.00
2022-10-08T13:28:59.426Z,52.50
2022-10-08T13:31:24.888Z,52.54
2022-10-08T13:33:53.312Z,53.29
2022-10-08T13:36:24.097Z,52.90
2022-10-08T13:38:52.341Z,51.80
2022-10-08T13:41:24.217Z,51.44
2022-10-08T13:43:53.669Z,52.48
2022-10-08T13:46:21.892Z,51.55
2022-10-08T13:48:49.951Z,51.67
2022-10-08T13:51:18.101Z,51.92
2022-10-08T13:53:46.262Z,50.91
2022-10-08T13:56:14.995Z,52.07
2022-10-08T13:58:43.323Z,51.65
2022-10-08T14:01:12.861Z,51.41
2022-10-08T14:03:41.076Z,51.89
2022-10-08T14:06:09.006Z,52.48
2022-10-08T14:08:37.689Z,52.99
2022-10-08T14:11:05.734Z,54.13
2022-10-08T14:13:34.381Z,54.91
2022-10-08T14:16:02.438Z,54.79
2022-10-08T14:18:32.376Z,54.92
2022-10-08T14:21:00.581Z,54.13
2022-10-08T14:23:28.621Z,54.44
2022-10-08T14:25:56.873Z,53.59
2022-10-08T14:28:25.570Z,54.21
2022-10-08T14:30:53.856Z,52.97
2022-10-08T14:33:22.258Z,53.18
2022-10-08T14:35:54.438Z,52.27
2022-10-08T14:38:22.463Z,52.52
2022-10-08T14:40:50.483Z,52.79
2022-10-08T14:43:18.467Z,52.15
2022-10-08T14:45:46.479Z,51.91
2022-10-08T14:48:14.520Z,52.37
2022-10-08T14:50:42.605Z,52.45
2022-10-08T14:53:12.325Z,52.40
2022-10-08T14:56:00.551Z,52.75
2022-10-08T14:58:28.455Z,53.27
2022-10-08T15:00:56.483Z,53.66
2022-10-08T15:03:24.726Z,54.43
2022-10-08T15:05:54.971Z,54.10
2022-10-08T15:08:24.588Z,53.63
2022-10-08T15:10:52.459Z,53.44
2022-10-08T15:13:20.622Z,53.77
2022-10-08T15:15:48.504Z,53.65
2022-10-08T15:18:17.043Z,53.67
2022-10-08T15:20:45.072Z,53.70
2022-10-08T15:23:13.731Z,53.66
2022-10-08T15:25:43.375Z,54.21
2022-10-08T15:28:12.313Z,54.55
2022-10-08T15:30:41.022Z,54.18
2022-10-08T15:33:09.060Z,54.39
2022-10-08T15:35:37.253Z,54.51
2022-10-08T15:38:05.892Z,55.29
2022-10-08T15:40:33.958Z,55.16
2022-10-08T15:43:04.619Z,55.49
2022-10-08T15:45:33.121Z,54.66
2022-10-08T15:48:01.804Z,55.32
2022-10-08T15:50:30.119Z,54.63
2022-10-08T15:52:58.098Z,55.43
2022-10-08T15:55:26.167Z,56.08
2022-10-08T15:57:54.086Z,56.82
2022-10-08T16:00:23.984Z,57.28
2022-10-08T16:02:52.573Z,57.79
2022-10-08T16:05:22.158Z,57.34
2022-10-08T16:07:50.456Z,56.82
2022-10-08T16:10:18.565Z,56.24
2022-10-08T16:12:47.146Z,56.55
2022-10-08T16:15:15.487Z,56.48
2022-10-08T16:17:45.134Z,56.58
2022-10-08T16:20:13.921Z,56.43
2022-10-08T16:22:42.180Z,56.30
2022-10-08T16:25:11.230Z,56.50
2022-10-08T16:27:40.137Z,56.33
2022-10-08T16:30:09.553Z,56.24
2022-10-08T16:32:38.015Z,56.78
2022-10-08T16:35:08.198Z,56.53
2022-10-08T16:37:36.922Z,56.48
2022-10-08T16:40:05.485Z,57.20
2022-10-08T16:42:33.597Z,56.99
2022-10-08T16:45:01.569Z,57.05
2022-10-08T16:47:29.736Z,57.73
2022-10-08T16:49:57.684Z,58.03
2022-10-08T16:52:27.061Z,58.36
2022-10-08T16:54:55.606Z,58.17
2022-10-08T16:57:24.795Z,58.56
2022-10-08T16:59:52.806Z,58.08
2022-10-08T17:02:25.628Z,58.54
2022-10-08T17:04:56.938Z,58.51
2022-10-08T17:07:24.968Z,58.83
2022-10-08T17:09:54.987Z,57.87
2022-10-08T17:12:22.983Z,58.03
2022-10-08T17:14:51.071Z,58.33
2022-10-08T17:17:19.060Z,58.34
2022-10-08T17:19:47.180Z,58.51
2022-10-08T17:22:16.835Z,58.84
2022-10-08T17:24:44.888Z,58.88
2022-10-08T17:27:14.321Z,58.60
2022-10-08T17:29:42.257Z,58.81
2022-10-08T17:32:11.731Z,58.35
2022-10-08T17:34:42.098Z,58.86
2022-10-08T17:37:10.846Z,58.91
2022-10-08T17:39:39.016Z,58.61
2022-10-08T17:42:07.425Z,58.82
2022-10-08T17:44:36.936Z,58.73
2022-10-08T17:47:09.579Z,59.05
2022-10-08T17:49:37.899Z,59.06
2022-10-08T17:52:06.049Z,59.26
2022-10-08T17:54:33.989Z,59.22
2022-10-08T17:57:03.192Z,58.97
2022-10-08T17:59:31.316Z,57.98
2022-10-08T18:02:00.702Z,57.99
2022-10-08T18:04:29.106Z,57.80
2022-10-08T18:07:02.497Z,57.18
2022-10-08T18:09:31.275Z,57.06
2022-10-08T18:11:59.277Z,57.03
2022-10-08T18:14:27.177Z,56.77
2022-10-08T18:16:55.095Z,57.06
2022-10-08T18:19:24.767Z,56.76
2022-10-08T18:21:52.856Z,56.83
2022-10-08T18:24:21.203Z,56.95
2022-10-08T18:26:51.506Z,57.69
2022-10-08T18:29:19.874Z,57.55
2022-10-08T18:31:47.984Z,57.77
2022-10-08T18:34:17.982Z,57.97
2022-10-08T18:36:47.770Z,58.28
2022-10-08T18:39:17.365Z,58.55
2022-10-08T18:41:47.233Z,58.69
2022-10-08T18:44:17.811Z,59.36
2022-10-08T18:46:46.045Z,59.27
2022-10-08T18:49:16.058Z,59.20
2022-10-08T18:51:44.653Z,58.79
2022-10-08T18:54:14.159Z,58.97
2022-10-08T18:56:42.784Z,59.10
2022-10-08T18:59:13.580Z,59.53
2022-10-08T19:01:43.643Z,59.07
2022-10-08T19:04:14.465Z,59.27
2022-10-08T19:06:44.051Z,59.07
2022-10-08T19:09:12.129Z,59.35
2022-10-08T19:11:45.215Z,58.67
2022-10-08T19:14:15.767Z,58.36
2022-10-08T19:16:44.743Z,58.39
2022-10-08T19:19:15.140Z,58.44
2022-10-08T19:21:43.883Z,58.22
2022-10-08T19:24:15.730Z,58.62
2022-10-08T19:26:45.948Z,58.70
2022-10-08T19:29:16.568Z,59.05
2022-10-08T19:31:47.562Z,58.79
2022-10-08T19:34:17.632Z,59.04
2022-10-08T19:36:46.805Z,59.15
2022-10-08T19:39:16.987Z,58.74
2022-10-08T19:41:47.204Z,58.94
2022-10-08T19:44:16.495Z,58.73
2022-10-08T19:46:44.980Z,58.92
2022-10-08T19:49:13.894Z,58.94
2022-10-08T19:51:42.320Z,58.52
2022-10-08T19:54:11.275Z,58.55
2022-10-08T19:56:39.444Z,58.99
2022-10-08T19:59:11.167Z,59.19
2022-10-08T20:01:41.735Z,58.91
2022-10-08T20:04:11.273Z,59.58
2022-10-08T20:06:41.216Z,59.89
2022-10-08T20:09:12.895Z,59.24
2022-10-08T20:11:42.251Z,59.33
2022-10-08T20:14:12.655Z,59.37
2022-10-08T20:16:42.558Z,58.84
2022-10-08T20:19:16.705Z,58.67
2022-10-08T20:21:45.498Z,58.85
2022-10-08T20:24:13.861Z,58.86
2022-10-08T20:26:43.624Z,58.71
2022-10-08T20:29:15.030Z,59.03
2022-10-08T20:31:44.471Z,58.22
2022-10-08T20:34:14.639Z,59.40
2022-10-08T20:36:43.040Z,59.13
2022-10-08T20:39:12.630Z,59.07
2022-10-08T20:41:40.697Z,58.89
2022-10-08T20:44:09.769Z,57.95
2022-10-08T20:46:39.637Z,58.57
2022-10-08T20:49:07.817Z,58.47
2022-10-08T20:51:36.233Z,58.95
2022-10-08T20:54:06.915Z,58.91
2022-10-08T20:56:39.716Z,58.79
2022-10-08T20:59:09.288Z,59.30
2022-10-08T21:01:39.697Z,58.87
2022-10-08T21:04:08.794Z,59.26
2022-10-08T21:06:39.281Z,59.12
2022-10-08T21:09:08.116Z,59.13
2022-10-08T21:11:37.247Z,58.60
2022-10-08T21:14:07.062Z,58.67
2022-10-08T21:16:37.452Z,58.71
2022-10-08T21:19:09.103Z,58.91
2022-10-08T21:21:37.628Z,58.56
2022-10-08T21:24:06.333Z,59.10
2022-10-08T21:26:36.642Z,59.12
2022-10-08T21:29:07.106Z,59.79
2022-10-08T21:31:36.895Z,60.02
2022-10-08T21:34:05.968Z,60.03
2022-10-08T21:36:37.539Z,59.83
2022-10-08T21:39:07.591Z,60.09
2022-10-08T21:41:37.440Z,60.43
2022-10-08T21:44:08.166Z,60.32
2022-10-08T21:46:38.280Z,60.68
2022-10-08T21:49:08.788Z,60.19
2022-10-08T21:51:38.470Z,60.23
2022-10-08T21:54:07.978Z,59.98
2022-10-08T21:56:38.252Z,59.91
2022-10-08T21:59:08.200Z,60.53
2022-10-08T22:01:38.380Z,60.82
2022-10-08T22:04:08.176Z,60.96
2022-10-08T22:06:40.225Z,60.75
2022-10-08T22:09:11.837Z,61.01
2022-10-08T22:11:40.070Z,61.29
2022-10-08T22:14:08.681Z,60.91
2022-10-08T22:16:37.393Z,61.40
2022-10-08T22:19:19.005Z,61.75
2022-10-08T22:21:50.825Z,61.82
2022-10-08T22:24:19.682Z,61.94
2022-10-08T22:26:58.891Z,62.12
2022-10-08T22:29:27.060Z,62.07
2022-10-08T22:31:55.294Z,61.97
2022-10-08T22:34:28.858Z,61.52
2022-10-08T22:37:01.260Z,60.78
2022-10-08T22:39:31.082Z,60.88
2022-10-08T22:41:59.603Z,61.22
2022-10-08T22:44:33.874Z,61.81
2022-10-08T22:47:08.891Z,62.37
2022-10-08T22:49:37.528Z,61.35
2022-10-08T22:52:13.031Z,61.48
2022-10-08T22:54:48.636Z,61.39
2022-10-08T22:57:31.705Z,61.45
2022-10-08T23:00:01.533Z,62.06
2022-10-08T23:02:35.736Z,61.55
2022-10-08T23:05:09.801Z,61.42
2022-10-08T23:07:41.094Z,61.63
2022-10-08T23:10:11.354Z,60.96
2022-10-08T23:12:45.036Z,61.38
2022-10-08T23:15:13.771Z,61.27
2022-10-08T23:17:42.563Z,61.21
2022-10-08T23:20:11.084Z,61.46
2022-10-08T23:22:40.762Z,61.52
2022-10-08T23:25:10.309Z,62.02
2022-10-08T23:27:38.476Z,62.21
2022-10-08T23:30:20.743Z,62.73
2022-10-08T23:32:55.557Z,62.14
2022-10-08T23:35:23.474Z,62.11
2022-10-08T23:37:52.748Z,62.68
2022-10-08T23:40:20.754Z,62.82
2022-10-08T23:42:48.919Z,62.83
2022-10-08T23:45:17.137Z,62.56
2022-10-08T23:47:45.367Z,62.65
2022-10-08T23:50:13.929Z,62.75
2022-10-08T23:52:42.288Z,62.32
2022-10-08T23:55:12.552Z,62.76
2022-10-08T23:57:40.455Z,62.50
